sensor_id;sensor_type;location;lat;lon;timestamp;temperature;humidity
18083;DHT22;9168;51.194;6.840;2023-04-03T00:01:27;2.50;99.90
18083;DHT22;9168;51.194;6.840;2023-04-03T00:03:54;2.50;99.90
18083;DHT22;9168;51.194;6.840;2023-04-03T00:06:21;2.50;99.90
18083;DHT22;9168;51.194;6.840;2023-04-03T00:08:48;2.50;99.90
18083;DHT22;9168;51.194;6.840;2023-04-03T00:11:16;2.50;99.90
18083;DHT22;9168;51.194;6.840;2023-04-03T00:13:43;2.50;99.90
18083;DHT22;9168;51.194;6.840;2023-04-03T00:16:12;2.40;99.90
18083;DHT22;9168;51.194;6.840;2023-04-03T00:18:39;2.40;99.90
18083;DHT22;9168;51.194;6.840;2023-04-03T00:21:07;2.40;99.90
18083;DHT22;9168;51.194;6.840;2023-04-03T00:23:34;2.30;99.90
18083;DHT22;9168;51.194;6.840;2023-04-03T00:26:01;2.30;99.90
18083;DHT22;9168;51.194;6.840;2023-04-03T00:28:28;2.30;99.90
18083;DHT22;9168;51.194;6.840;2023-04-03T00:30:54;2.30;99.90
18083;DHT22;9168;51.194;6.840;2023-04-03T00:33:23;2.30;99.90
18083;DHT22;9168;51.194;6.840;2023-04-03T00:35:50;2.30;99.90
18083;DHT22;9168;51.194;6.840;2023-04-03T00:38:17;2.30;99.90
18083;DHT22;9168;51.194;6.840;2023-04-03T00:40:46;2.30;99.90
18083;DHT22;9168;51.194;6.840;2023-04-03T00:43:15;2.30;99.90
18083;DHT22;9168;51.194;6.840;2023-04-03T00:45:44;2.20;99.90
18083;DHT22;9168;51.194;6.840;2023-04-03T00:48:14;2.20;99.90
18083;DHT22;9168;51.194;6.840;2023-04-03T00:50:44;2.20;99.90
18083;DHT22;9168;51.194;6.840;2023-04-03T00:53:13;2.20;99.90
18083;DHT22;9168;51.194;6.840;2023-04-03T00:55:42;2.20;99.90
18083;DHT22;9168;51.194;6.840;2023-04-03T00:58:10;2.20;99.90
18083;DHT22;9168;51.194;6.840;2023-04-03T01:00:41;2.10;99.90
18083;DHT22;9168;51.194;6.840;2023-04-03T01:03:09;2.20;99.90
18083;DHT22;9168;51.194;6.840;2023-04-03T01:05:35;2.20;99.90
18083;DHT22;9168;51.194;6.840;2023-04-03T01:08:04;2.10;99.90
18083;DHT22;9168;51.194;6.840;2023-04-03T01:10:31;2.10;99.90
18083;DHT22;9168;51.194;6.840;2023-04-03T01:13:00;2.10;99.90
18083;DHT22;9168;51.194;6.840;2023-04-03T01:15:28;2.10;99.90
18083;DHT22;9168;51.194;6.840;2023-04-03T01:17:57;2.10;99.90
18083;DHT22;9168;51.194;6.840;2023-04-03T01:20:46;2.10;99.90
18083;DHT22;9168;51.194;6.840;2023-04-03T01:26:13;2.00;99.90
18083;DHT22;9168;51.194;6.840;2023-04-03T01:28:40;2.00;99.90
18083;DHT22;9168;51.194;6.840;2023-04-03T01:31:14;2.00;99.90
18083;DHT22;9168;51.194;6.840;2023-04-03T01:33:43;2.00;99.90
18083;DHT22;9168;51.194;6.840;2023-04-03T01:36:16;2.00;99.90
18083;DHT22;9168;51.194;6.840;2023-04-03T01:38:43;2.00;99.90
18083;DHT22;9168;51.194;6.840;2023-04-03T01:41:10;2.00;99.90
18083;DHT22;9168;51.194;6.840;2023-04-03T01:43:37;1.90;99.90
18083;DHT22;9168;51.194;6.840;2023-04-03T01:46:04;1.90;99.90
18083;DHT22;9168;51.194;6.840;2023-04-03T01:48:31;1.90;99.90
18083;DHT22;9168;51.194;6.840;2023-04-03T01:50:59;1.80;99.90
18083;DHT22;9168;51.194;6.840;2023-04-03T01:53:26;1.90;99.90
18083;DHT22;9168;51.194;6.840;2023-04-03T01:55:53;1.90;99.90
18083;DHT22;9168;51.194;6.840;2023-04-03T01:58:20;1.90;99.90
18083;DHT22;9168;51.194;6.840;2023-04-03T02:00:47;1.90;99.90
18083;DHT22;9168;51.194;6.840;2023-04-03T02:03:14;2.00;99.90
18083;DHT22;9168;51.194;6.840;2023-04-03T02:05:41;2.00;99.90
18083;DHT22;9168;51.194;6.840;2023-04-03T02:08:09;2.00;99.90
18083;DHT22;9168;51.194;6.840;2023-04-03T02:10:37;2.00;99.90
18083;DHT22;9168;51.194;6.840;2023-04-03T02:13:04;2.10;99.90
18083;DHT22;9168;51.194;6.840;2023-04-03T02:15:31;2.20;99.90
18083;DHT22;9168;51.194;6.840;2023-04-03T02:17:57;2.20;99.90
18083;DHT22;9168;51.194;6.840;2023-04-03T02:20:24;2.20;99.90
18083;DHT22;9168;51.194;6.840;2023-04-03T02:22:51;2.30;99.90
18083;DHT22;9168;51.194;6.840;2023-04-03T02:25:20;2.40;99.90
18083;DHT22;9168;51.194;6.840;2023-04-03T02:27:47;2.40;99.90
18083;DHT22;9168;51.194;6.840;2023-04-03T02:30:14;2.50;99.90
18083;DHT22;9168;51.194;6.840;2023-04-03T02:32:41;2.50;99.90
18083;DHT22;9168;51.194;6.840;2023-04-03T02:35:08;2.50;99.90
18083;DHT22;9168;51.194;6.840;2023-04-03T02:37:35;2.60;99.90
18083;DHT22;9168;51.194;6.840;2023-04-03T02:40:03;2.70;99.90
18083;DHT22;9168;51.194;6.840;2023-04-03T02:42:31;2.70;99.90
18083;DHT22;9168;51.194;6.840;2023-04-03T02:44:58;2.80;99.90
18083;DHT22;9168;51.194;6.840;2023-04-03T02:47:26;2.80;99.90
18083;DHT22;9168;51.194;6.840;2023-04-03T02:49:53;2.80;99.90
18083;DHT22;9168;51.194;6.840;2023-04-03T02:52:20;2.90;99.90
18083;DHT22;9168;51.194;6.840;2023-04-03T02:54:47;3.00;99.90
18083;DHT22;9168;51.194;6.840;2023-04-03T02:57:14;3.10;99.90
18083;DHT22;9168;51.194;6.840;2023-04-03T02:59:42;3.20;99.90
18083;DHT22;9168;51.194;6.840;2023-04-03T03:02:10;3.30;99.90
18083;DHT22;9168;51.194;6.840;2023-04-03T03:04:37;3.30;99.90
18083;DHT22;9168;51.194;6.840;2023-04-03T03:07:04;3.30;99.90
18083;DHT22;9168;51.194;6.840;2023-04-03T03:09:31;3.40;99.90
18083;DHT22;9168;51.194;6.840;2023-04-03T03:11:58;3.40;99.90
18083;DHT22;9168;51.194;6.840;2023-04-03T03:14:25;3.40;99.90
18083;DHT22;9168;51.194;6.840;2023-04-03T03:16:53;3.40;99.90
18083;DHT22;9168;51.194;6.840;2023-04-03T03:19:20;3.40;99.90
18083;DHT22;9168;51.194;6.840;2023-04-03T03:21:47;3.50;99.90
18083;DHT22;9168;51.194;6.840;2023-04-03T03:24:14;3.50;99.90
18083;DHT22;9168;51.194;6.840;2023-04-03T03:26:41;3.50;99.90
18083;DHT22;9168;51.194;6.840;2023-04-03T03:29:08;3.60;99.90
18083;DHT22;9168;51.194;6.840;2023-04-03T03:31:35;3.60;99.90
18083;DHT22;9168;51.194;6.840;2023-04-03T03:34:03;3.60;99.90
18083;DHT22;9168;51.194;6.840;2023-04-03T03:36:30;3.60;99.90
18083;DHT22;9168;51.194;6.840;2023-04-03T03:38:57;3.60;99.90
18083;DHT22;9168;51.194;6.840;2023-04-03T03:41:24;3.70;99.90
18083;DHT22;9168;51.194;6.840;2023-04-03T03:43:51;3.60;99.90
18083;DHT22;9168;51.194;6.840;2023-04-03T03:46:18;3.60;99.90
18083;DHT22;9168;51.194;6.840;2023-04-03T03:48:45;3.60;99.90
18083;DHT22;9168;51.194;6.840;2023-04-03T03:51:13;3.60;99.90
18083;DHT22;9168;51.194;6.840;2023-04-03T03:53:40;3.50;99.90
18083;DHT22;9168;51.194;6.840;2023-04-03T03:56:07;3.50;99.90
18083;DHT22;9168;51.194;6.840;2023-04-03T03:58:35;3.50;99.90
18083;DHT22;9168;51.194;6.840;2023-04-03T04:01:02;3.50;99.90
18083;DHT22;9168;51.194;6.840;2023-04-03T04:03:30;3.50;99.90
18083;DHT22;9168;51.194;6.840;2023-04-03T04:05:57;3.50;99.90
18083;DHT22;9168;51.194;6.840;2023-04-03T04:08:25;3.50;99.90
18083;DHT22;9168;51.194;6.840;2023-04-03T04:10:53;3.50;99.90
18083;DHT22;9168;51.194;6.840;2023-04-03T04:13:20;3.50;99.90
18083;DHT22;9168;51.194;6.840;2023-04-03T04:15:47;3.50;99.90
18083;DHT22;9168;51.194;6.840;2023-04-03T04:18:13;3.40;99.90
18083;DHT22;9168;51.194;6.840;2023-04-03T04:20:40;3.50;99.90
18083;DHT22;9168;51.194;6.840;2023-04-03T04:23:07;3.40;99.90
18083;DHT22;9168;51.194;6.840;2023-04-03T04:25:35;3.40;99.90
18083;DHT22;9168;51.194;6.840;2023-04-03T04:28:02;3.40;99.90
18083;DHT22;9168;51.194;6.840;2023-04-03T04:30:29;3.40;99.90
18083;DHT22;9168;51.194;6.840;2023-04-03T04:32:56;3.40;99.90
18083;DHT22;9168;51.194;6.840;2023-04-03T04:35:23;3.40;99.90
18083;DHT22;9168;51.194;6.840;2023-04-03T04:37:50;3.40;99.90
18083;DHT22;9168;51.194;6.840;2023-04-03T04:40:17;3.50;99.90
18083;DHT22;9168;51.194;6.840;2023-04-03T04:42:45;3.50;99.90
18083;DHT22;9168;51.194;6.840;2023-04-03T04:45:12;3.50;99.90
18083;DHT22;9168;51.194;6.840;2023-04-03T04:47:40;3.40;99.90
18083;DHT22;9168;51.194;6.840;2023-04-03T04:50:08;3.40;99.90
18083;DHT22;9168;51.194;6.840;2023-04-03T04:52:35;3.40;99.90
18083;DHT22;9168;51.194;6.840;2023-04-03T04:55:02;3.40;99.90
18083;DHT22;9168;51.194;6.840;2023-04-03T04:57:29;3.40;99.90
18083;DHT22;9168;51.194;6.840;2023-04-03T04:59:57;3.50;99.90
18083;DHT22;9168;51.194;6.840;2023-04-03T05:02:24;3.40;99.90
18083;DHT22;9168;51.194;6.840;2023-04-03T05:04:51;3.40;99.90
18083;DHT22;9168;51.194;6.840;2023-04-03T05:07:18;3.40;99.90
18083;DHT22;9168;51.194;6.840;2023-04-03T05:09:45;3.40;99.90
18083;DHT22;9168;51.194;6.840;2023-04-03T05:12:12;3.40;99.90
18083;DHT22;9168;51.194;6.840;2023-04-03T05:14:39;3.40;99.90
18083;DHT22;9168;51.194;6.840;2023-04-03T05:17:07;3.40;99.90
18083;DHT22;9168;51.194;6.840;2023-04-03T05:19:34;3.30;99.90
18083;DHT22;9168;51.194;6.840;2023-04-03T05:22:01;3.40;99.90
18083;DHT22;9168;51.194;6.840;2023-04-03T05:24:28;3.40;99.90
18083;DHT22;9168;51.194;6.840;2023-04-03T05:26:54;3.40;99.90
18083;DHT22;9168;51.194;6.840;2023-04-03T05:29:21;3.30;99.90
18083;DHT22;9168;51.194;6.840;2023-04-03T05:31:49;3.30;99.90
18083;DHT22;9168;51.194;6.840;2023-04-03T05:34:17;3.30;99.90
18083;DHT22;9168;51.194;6.840;2023-04-03T05:36:44;3.40;99.90
18083;DHT22;9168;51.194;6.840;2023-04-03T05:39:11;3.40;99.90
18083;DHT22;9168;51.194;6.840;2023-04-03T05:41:38;3.40;99.90
18083;DHT22;9168;51.194;6.840;2023-04-03T05:44:04;3.40;99.90
18083;DHT22;9168;51.194;6.840;2023-04-03T05:46:31;3.40;99.90
18083;DHT22;9168;51.194;6.840;2023-04-03T05:48:58;3.40;99.90
18083;DHT22;9168;51.194;6.840;2023-04-03T05:51:29;3.40;99.90
18083;DHT22;9168;51.194;6.840;2023-04-03T05:54:01;3.50;99.90
18083;DHT22;9168;51.194;6.840;2023-04-03T05:56:29;3.50;99.90
18083;DHT22;9168;51.194;6.840;2023-04-03T05:58:56;3.50;99.90
18083;DHT22;9168;51.194;6.840;2023-04-03T06:01:23;3.50;99.90
18083;DHT22;9168;51.194;6.840;2023-04-03T06:03:50;3.60;99.90
18083;DHT22;9168;51.194;6.840;2023-04-03T06:06:16;3.60;99.90
18083;DHT22;9168;51.194;6.840;2023-04-03T06:08:45;3.60;99.90
18083;DHT22;9168;51.194;6.840;2023-04-03T06:11:11;3.60;99.90
18083;DHT22;9168;51.194;6.840;2023-04-03T06:13:38;3.70;99.90
18083;DHT22;9168;51.194;6.840;2023-04-03T06:16:06;3.70;99.90
18083;DHT22;9168;51.194;6.840;2023-04-03T06:18:35;3.70;99.90
18083;DHT22;9168;51.194;6.840;2023-04-03T06:21:01;3.70;99.90
18083;DHT22;9168;51.194;6.840;2023-04-03T06:23:28;3.70;99.90
18083;DHT22;9168;51.194;6.840;2023-04-03T06:25:57;3.70;99.90
18083;DHT22;9168;51.194;6.840;2023-04-03T06:28:24;3.80;99.90
18083;DHT22;9168;51.194;6.840;2023-04-03T06:30:51;3.80;99.90
18083;DHT22;9168;51.194;6.840;2023-04-03T06:33:17;3.80;99.90
18083;DHT22;9168;51.194;6.840;2023-04-03T06:35:45;3.90;99.90
18083;DHT22;9168;51.194;6.840;2023-04-03T06:38:12;3.90;99.90
18083;DHT22;9168;51.194;6.840;2023-04-03T06:40:38;3.80;99.90
18083;DHT22;9168;51.194;6.840;2023-04-03T06:43:07;3.90;99.90
18083;DHT22;9168;51.194;6.840;2023-04-03T06:45:33;4.00;99.90
18083;DHT22;9168;51.194;6.840;2023-04-03T06:48:01;4.00;99.90
18083;DHT22;9168;51.194;6.840;2023-04-03T06:50:28;4.10;99.90
18083;DHT22;9168;51.194;6.840;2023-04-03T06:52:55;4.10;99.90
18083;DHT22;9168;51.194;6.840;2023-04-03T06:55:22;4.10;99.90
18083;DHT22;9168;51.194;6.840;2023-04-03T06:57:51;4.20;99.90
18083;DHT22;9168;51.194;6.840;2023-04-03T07:00:20;4.20;99.90
18083;DHT22;9168;51.194;6.840;2023-04-03T07:02:47;4.30;99.90
18083;DHT22;9168;51.194;6.840;2023-04-03T07:05:14;4.30;99.90
18083;DHT22;9168;51.194;6.840;2023-04-03T07:07:41;4.40;99.90
18083;DHT22;9168;51.194;6.840;2023-04-03T07:10:08;4.40;99.90
18083;DHT22;9168;51.194;6.840;2023-04-03T07:12:36;4.50;99.90
18083;DHT22;9168;51.194;6.840;2023-04-03T07:15:04;4.60;99.90
18083;DHT22;9168;51.194;6.840;2023-04-03T07:17:32;4.60;99.90
18083;DHT22;9168;51.194;6.840;2023-04-03T07:19:59;4.70;99.90
18083;DHT22;9168;51.194;6.840;2023-04-03T07:22:26;4.80;99.90
18083;DHT22;9168;51.194;6.840;2023-04-03T07:24:53;4.90;99.90
18083;DHT22;9168;51.194;6.840;2023-04-03T07:27:20;4.90;99.90
18083;DHT22;9168;51.194;6.840;2023-04-03T07:29:47;5.00;99.90
18083;DHT22;9168;51.194;6.840;2023-04-03T07:32:15;5.00;99.90
18083;DHT22;9168;51.194;6.840;2023-04-03T07:34:43;5.10;99.90
18083;DHT22;9168;51.194;6.840;2023-04-03T07:37:10;5.20;99.90
18083;DHT22;9168;51.194;6.840;2023-04-03T07:39:38;5.30;99.90
18083;DHT22;9168;51.194;6.840;2023-04-03T07:42:05;5.30;99.90
18083;DHT22;9168;51.194;6.840;2023-04-03T07:44:32;5.40;99.90
18083;DHT22;9168;51.194;6.840;2023-04-03T07:47:01;5.40;99.90
18083;DHT22;9168;51.194;6.840;2023-04-03T07:49:27;5.50;99.90
18083;DHT22;9168;51.194;6.840;2023-04-03T07:51:56;5.50;99.90
18083;DHT22;9168;51.194;6.840;2023-04-03T07:54:22;5.60;99.90
18083;DHT22;9168;51.194;6.840;2023-04-03T07:56:50;5.60;99.90
18083;DHT22;9168;51.194;6.840;2023-04-03T07:59:16;5.70;99.90
18083;DHT22;9168;51.194;6.840;2023-04-03T08:01:43;5.70;99.90
18083;DHT22;9168;51.194;6.840;2023-04-03T08:04:10;5.80;99.90
18083;DHT22;9168;51.194;6.840;2023-04-03T08:06:37;5.90;99.90
18083;DHT22;9168;51.194;6.840;2023-04-03T08:09:05;5.90;99.90
18083;DHT22;9168;51.194;6.840;2023-04-03T08:11:32;6.00;99.90
18083;DHT22;9168;51.194;6.840;2023-04-03T08:13:59;6.00;99.90
18083;DHT22;9168;51.194;6.840;2023-04-03T08:16:30;6.00;99.90
18083;DHT22;9168;51.194;6.840;2023-04-03T08:18:58;6.10;99.90
18083;DHT22;9168;51.194;6.840;2023-04-03T08:21:25;6.10;99.90
18083;DHT22;9168;51.194;6.840;2023-04-03T08:23:53;6.20;99.90
18083;DHT22;9168;51.194;6.840;2023-04-03T08:26:24;6.20;99.90
18083;DHT22;9168;51.194;6.840;2023-04-03T08:28:54;6.30;99.90
18083;DHT22;9168;51.194;6.840;2023-04-03T08:31:21;6.40;99.90
18083;DHT22;9168;51.194;6.840;2023-04-03T08:33:48;6.50;99.90
18083;DHT22;9168;51.194;6.840;2023-04-03T08:36:21;6.50;99.90
18083;DHT22;9168;51.194;6.840;2023-04-03T08:38:48;6.50;99.90
18083;DHT22;9168;51.194;6.840;2023-04-03T08:41:24;6.50;99.90
18083;DHT22;9168;51.194;6.840;2023-04-03T08:44:07;6.60;99.90
18083;DHT22;9168;51.194;6.840;2023-04-03T08:46:43;6.70;99.90
18083;DHT22;9168;51.194;6.840;2023-04-03T08:49:18;6.70;99.90
18083;DHT22;9168;51.194;6.840;2023-04-03T08:51:49;6.80;99.90
18083;DHT22;9168;51.194;6.840;2023-04-03T08:54:24;6.90;99.90
18083;DHT22;9168;51.194;6.840;2023-04-03T08:56:55;6.90;99.90
18083;DHT22;9168;51.194;6.840;2023-04-03T08:59:27;6.90;99.90
18083;DHT22;9168;51.194;6.840;2023-04-03T09:01:56;7.00;99.90
18083;DHT22;9168;51.194;6.840;2023-04-03T09:04:26;7.10;99.90
18083;DHT22;9168;51.194;6.840;2023-04-03T09:06:57;7.20;99.90
18083;DHT22;9168;51.194;6.840;2023-04-03T09:09:31;7.20;99.90
18083;DHT22;9168;51.194;6.840;2023-04-03T09:12:11;7.20;99.90
18083;DHT22;9168;51.194;6.840;2023-04-03T09:14:45;7.30;99.90
18083;DHT22;9168;51.194;6.840;2023-04-03T09:17:17;7.40;99.90
18083;DHT22;9168;51.194;6.840;2023-04-03T09:19:52;7.40;99.90
18083;DHT22;9168;51.194;6.840;2023-04-03T09:22:24;7.40;99.90
18083;DHT22;9168;51.194;6.840;2023-04-03T09:24:57;7.40;99.90
18083;DHT22;9168;51.194;6.840;2023-04-03T09:27:26;7.40;99.90
18083;DHT22;9168;51.194;6.840;2023-04-03T09:29:54;7.50;99.90
18083;DHT22;9168;51.194;6.840;2023-04-03T09:32:27;7.50;99.90
18083;DHT22;9168;51.194;6.840;2023-04-03T09:34:57;7.60;99.90
18083;DHT22;9168;51.194;6.840;2023-04-03T09:37:37;7.70;99.90
18083;DHT22;9168;51.194;6.840;2023-04-03T09:40:05;7.70;99.90
18083;DHT22;9168;51.194;6.840;2023-04-03T09:42:46;7.80;99.90
18083;DHT22;9168;51.194;6.840;2023-04-03T09:45:24;7.90;99.90
18083;DHT22;9168;51.194;6.840;2023-04-03T09:48:04;8.00;99.90
18083;DHT22;9168;51.194;6.840;2023-04-03T09:50:32;8.00;99.90
18083;DHT22;9168;51.194;6.840;2023-04-03T09:53:05;8.10;99.90
18083;DHT22;9168;51.194;6.840;2023-04-03T09:55:33;8.20;99.90
18083;DHT22;9168;51.194;6.840;2023-04-03T09:58:25;8.30;99.90
18083;DHT22;9168;51.194;6.840;2023-04-03T10:00:57;8.40;99.90
18083;DHT22;9168;51.194;6.840;2023-04-03T10:03:27;8.50;99.90
18083;DHT22;9168;51.194;6.840;2023-04-03T10:05:55;8.70;99.90
18083;DHT22;9168;51.194;6.840;2023-04-03T10:08:25;8.80;99.90
18083;DHT22;9168;51.194;6.840;2023-04-03T10:11:08;8.90;99.90
18083;DHT22;9168;51.194;6.840;2023-04-03T10:13:49;9.10;99.90
18083;DHT22;9168;51.194;6.840;2023-04-03T10:16:18;9.20;99.90
18083;DHT22;9168;51.194;6.840;2023-04-03T10:18:51;9.30;99.90
18083;DHT22;9168;51.194;6.840;2023-04-03T10:21:29;9.50;99.90
18083;DHT22;9168;51.194;6.840;2023-04-03T10:24:07;9.80;99.90
18083;DHT22;9168;51.194;6.840;2023-04-03T10:26:41;10.10;99.90
18083;DHT22;9168;51.194;6.840;2023-04-03T10:29:21;10.60;99.90
18083;DHT22;9168;51.194;6.840;2023-04-03T10:31:53;10.90;99.90
18083;DHT22;9168;51.194;6.840;2023-04-03T10:34:26;11.30;99.90
18083;DHT22;9168;51.194;6.840;2023-04-03T10:36:58;11.60;99.90
18083;DHT22;9168;51.194;6.840;2023-04-03T10:39:32;12.00;99.90
18083;DHT22;9168;51.194;6.840;2023-04-03T10:42:04;12.40;99.90
18083;DHT22;9168;51.194;6.840;2023-04-03T10:44:47;12.90;99.90
18083;DHT22;9168;51.194;6.840;2023-04-03T10:47:21;13.60;99.90
18083;DHT22;9168;51.194;6.840;2023-04-03T10:49:55;14.20;99.90
18083;DHT22;9168;51.194;6.840;2023-04-03T10:52:30;15.00;99.90
18083;DHT22;9168;51.194;6.840;2023-04-03T10:55:14;15.70;98.40
18083;DHT22;9168;51.194;6.840;2023-04-03T10:57:43;16.30;97.70
18083;DHT22;9168;51.194;6.840;2023-04-03T11:00:17;17.10;97.40
18083;DHT22;9168;51.194;6.840;2023-04-03T11:02:51;17.50;95.10
18083;DHT22;9168;51.194;6.840;2023-04-03T11:05:28;18.00;94.00
18083;DHT22;9168;51.194;6.840;2023-04-03T11:07:59;18.50;91.70
18083;DHT22;9168;51.194;6.840;2023-04-03T11:10:35;18.60;90.70
18083;DHT22;9168;51.194;6.840;2023-04-03T11:13:08;18.70;88.30
18083;DHT22;9168;51.194;6.840;2023-04-03T11:15:39;18.90;85.70
18083;DHT22;9168;51.194;6.840;2023-04-03T11:18:09;19.10;81.70
18083;DHT22;9168;51.194;6.840;2023-04-03T11:20:39;19.20;84.70
18083;DHT22;9168;51.194;6.840;2023-04-03T11:23:15;19.50;81.10
18083;DHT22;9168;51.194;6.840;2023-04-03T11:25:49;19.50;79.50
18083;DHT22;9168;51.194;6.840;2023-04-03T11:28:17;19.60;79.70
18083;DHT22;9168;51.194;6.840;2023-04-03T11:30:50;19.80;77.00
18083;DHT22;9168;51.194;6.840;2023-04-03T11:33:28;20.00;77.40
18083;DHT22;9168;51.194;6.840;2023-04-03T11:36:00;20.50;74.40
18083;DHT22;9168;51.194;6.840;2023-04-03T11:38:33;20.70;72.20
18083;DHT22;9168;51.194;6.840;2023-04-03T11:41:02;20.70;71.30
18083;DHT22;9168;51.194;6.840;2023-04-03T11:43:30;21.10;70.90
18083;DHT22;9168;51.194;6.840;2023-04-03T11:46:00;21.10;65.60
18083;DHT22;9168;51.194;6.840;2023-04-03T11:48:58;21.30;70.50
18083;DHT22;9168;51.194;6.840;2023-04-03T11:51:52;21.30;63.60
18083;DHT22;9168;51.194;6.840;2023-04-03T11:54:52;21.10;62.00
18083;DHT22;9168;51.194;6.840;2023-04-03T11:57:46;21.40;64.60
18083;DHT22;9168;51.194;6.840;2023-04-03T12:00:47;21.60;64.00
18083;DHT22;9168;51.194;6.840;2023-04-03T12:06:47;22.10;61.00
18083;DHT22;9168;51.194;6.840;2023-04-03T12:09:24;22.20;60.30
18083;DHT22;9168;51.194;6.840;2023-04-03T12:11:53;22.30;61.20
18083;DHT22;9168;51.194;6.840;2023-04-03T12:14:22;22.70;60.60
18083;DHT22;9168;51.194;6.840;2023-04-03T12:16:52;22.80;59.70
18083;DHT22;9168;51.194;6.840;2023-04-03T12:19:37;22.90;59.50
18083;DHT22;9168;51.194;6.840;2023-04-03T12:22:17;23.30;57.10
18083;DHT22;9168;51.194;6.840;2023-04-03T12:24:47;23.30;56.50
18083;DHT22;9168;51.194;6.840;2023-04-03T12:27:29;23.50;58.20
18083;DHT22;9168;51.194;6.840;2023-04-03T12:30:15;23.90;58.20
18083;DHT22;9168;51.194;6.840;2023-04-03T12:33:02;23.90;59.30
18083;DHT22;9168;51.194;6.840;2023-04-03T12:35:37;24.20;57.40
18083;DHT22;9168;51.194;6.840;2023-04-03T12:38:30;23.90;55.20
18083;DHT22;9168;51.194;6.840;2023-04-03T12:41:13;23.90;57.00
18083;DHT22;9168;51.194;6.840;2023-04-03T12:44:06;24.00;55.40
18083;DHT22;9168;51.194;6.840;2023-04-03T12:46:38;24.50;55.80
18083;DHT22;9168;51.194;6.840;2023-04-03T12:49:22;24.40;55.70
18083;DHT22;9168;51.194;6.840;2023-04-03T12:51:51;24.60;55.80
18083;DHT22;9168;51.194;6.840;2023-04-03T12:54:21;24.80;55.90
18083;DHT22;9168;51.194;6.840;2023-04-03T12:56:50;24.90;54.40
18083;DHT22;9168;51.194;6.840;2023-04-03T12:59:20;24.80;55.80
18083;DHT22;9168;51.194;6.840;2023-04-03T13:01:53;24.80;56.70
18083;DHT22;9168;51.194;6.840;2023-04-03T13:04:20;24.80;54.90
18083;DHT22;9168;51.194;6.840;2023-04-03T13:06:48;24.60;55.90
18083;DHT22;9168;51.194;6.840;2023-04-03T13:09:21;24.50;54.80
18083;DHT22;9168;51.194;6.840;2023-04-03T13:11:49;24.30;56.50
18083;DHT22;9168;51.194;6.840;2023-04-03T13:14:20;23.80;55.90
18083;DHT22;9168;51.194;6.840;2023-04-03T13:16:54;23.70;63.10
18083;DHT22;9168;51.194;6.840;2023-04-03T13:19:23;23.40;55.30
18083;DHT22;9168;51.194;6.840;2023-04-03T13:21:54;23.30;56.70
18083;DHT22;9168;51.194;6.840;2023-04-03T13:24:25;23.40;57.70
18083;DHT22;9168;51.194;6.840;2023-04-03T13:26:52;23.40;58.40
18083;DHT22;9168;51.194;6.840;2023-04-03T13:29:24;23.30;57.10
18083;DHT22;9168;51.194;6.840;2023-04-03T13:31:53;23.30;57.70
18083;DHT22;9168;51.194;6.840;2023-04-03T13:34:22;23.20;56.40
18083;DHT22;9168;51.194;6.840;2023-04-03T13:37:01;23.40;55.90
18083;DHT22;9168;51.194;6.840;2023-04-03T13:39:32;23.20;55.70
18083;DHT22;9168;51.194;6.840;2023-04-03T13:42:01;23.10;54.60
18083;DHT22;9168;51.194;6.840;2023-04-03T13:44:34;23.00;54.80
18083;DHT22;9168;51.194;6.840;2023-04-03T13:47:16;23.20;56.30
18083;DHT22;9168;51.194;6.840;2023-04-03T13:49:45;23.30;56.60
18083;DHT22;9168;51.194;6.840;2023-04-03T13:52:24;23.60;56.60
18083;DHT22;9168;51.194;6.840;2023-04-03T13:54:56;23.60;56.80
18083;DHT22;9168;51.194;6.840;2023-04-03T13:57:23;23.60;55.70
18083;DHT22;9168;51.194;6.840;2023-04-03T13:59:51;23.60;55.70
18083;DHT22;9168;51.194;6.840;2023-04-03T14:02:20;23.60;55.20
18083;DHT22;9168;51.194;6.840;2023-04-03T14:04:53;23.40;54.80
18083;DHT22;9168;51.194;6.840;2023-04-03T14:07:22;23.40;55.30
18083;DHT22;9168;51.194;6.840;2023-04-03T14:09:50;23.10;56.60
18083;DHT22;9168;51.194;6.840;2023-04-03T14:12:24;22.70;56.90
18083;DHT22;9168;51.194;6.840;2023-04-03T14:14:52;22.40;55.90
18083;DHT22;9168;51.194;6.840;2023-04-03T14:17:22;22.10;56.10
18083;DHT22;9168;51.194;6.840;2023-04-03T14:19:49;22.10;57.10
18083;DHT22;9168;51.194;6.840;2023-04-03T14:22:18;22.10;57.40
18083;DHT22;9168;51.194;6.840;2023-04-03T14:24:47;22.10;57.10
18083;DHT22;9168;51.194;6.840;2023-04-03T14:27:19;22.20;58.40
18083;DHT22;9168;51.194;6.840;2023-04-03T14:29:47;22.50;57.10
18083;DHT22;9168;51.194;6.840;2023-04-03T14:32:16;22.90;56.60
18083;DHT22;9168;51.194;6.840;2023-04-03T14:34:44;23.10;56.30
18083;DHT22;9168;51.194;6.840;2023-04-03T14:37:13;22.90;56.60
18083;DHT22;9168;51.194;6.840;2023-04-03T14:39:40;23.10;56.50
18083;DHT22;9168;51.194;6.840;2023-04-03T14:42:12;23.10;55.20
18083;DHT22;9168;51.194;6.840;2023-04-03T14:44:40;22.80;57.30
18083;DHT22;9168;51.194;6.840;2023-04-03T14:47:10;22.60;55.90
18083;DHT22;9168;51.194;6.840;2023-04-03T14:49:37;22.40;57.60
18083;DHT22;9168;51.194;6.840;2023-04-03T14:52:04;22.30;56.70
18083;DHT22;9168;51.194;6.840;2023-04-03T14:54:31;22.10;57.90
18083;DHT22;9168;51.194;6.840;2023-04-03T14:56:59;22.20;57.70
18083;DHT22;9168;51.194;6.840;2023-04-03T14:59:27;22.20;58.10
18083;DHT22;9168;51.194;6.840;2023-04-03T15:01:56;22.10;56.50
18083;DHT22;9168;51.194;6.840;2023-04-03T15:04:23;22.00;56.50
18083;DHT22;9168;51.194;6.840;2023-04-03T15:06:51;22.00;57.00
18083;DHT22;9168;51.194;6.840;2023-04-03T15:09:20;22.10;57.70
18083;DHT22;9168;51.194;6.840;2023-04-03T15:11:48;22.30;57.30
18083;DHT22;9168;51.194;6.840;2023-04-03T15:14:15;22.20;57.10
18083;DHT22;9168;51.194;6.840;2023-04-03T15:16:42;22.10;58.10
18083;DHT22;9168;51.194;6.840;2023-04-03T15:19:10;21.70;58.00
18083;DHT22;9168;51.194;6.840;2023-04-03T15:21:37;21.60;58.60
18083;DHT22;9168;51.194;6.840;2023-04-03T15:24:04;21.40;58.10
18083;DHT22;9168;51.194;6.840;2023-04-03T15:26:31;21.20;58.10
18083;DHT22;9168;51.194;6.840;2023-04-03T15:28:58;20.70;57.90
18083;DHT22;9168;51.194;6.840;2023-04-03T15:31:25;20.40;58.10
18083;DHT22;9168;51.194;6.840;2023-04-03T15:33:52;19.90;59.20
18083;DHT22;9168;51.194;6.840;2023-04-03T15:36:20;19.60;59.40
18083;DHT22;9168;51.194;6.840;2023-04-03T15:38:47;19.20;61.20
18083;DHT22;9168;51.194;6.840;2023-04-03T15:41:14;19.10;60.70
18083;DHT22;9168;51.194;6.840;2023-04-03T15:43:43;18.80;62.30
18083;DHT22;9168;51.194;6.840;2023-04-03T15:46:10;18.40;63.00
18083;DHT22;9168;51.194;6.840;2023-04-03T15:48:37;17.90;63.70
18083;DHT22;9168;51.194;6.840;2023-04-03T15:51:05;17.60;64.40
18083;DHT22;9168;51.194;6.840;2023-04-03T15:53:33;17.20;64.60
18083;DHT22;9168;51.194;6.840;2023-04-03T15:56:00;16.70;66.60
18083;DHT22;9168;51.194;6.840;2023-04-03T15:58:27;16.30;66.40
18083;DHT22;9168;51.194;6.840;2023-04-03T16:00:54;16.00;67.10
18083;DHT22;9168;51.194;6.840;2023-04-03T16:03:21;15.80;69.00
18083;DHT22;9168;51.194;6.840;2023-04-03T16:05:50;15.50;69.20
18083;DHT22;9168;51.194;6.840;2023-04-03T16:08:17;15.30;71.10
18083;DHT22;9168;51.194;6.840;2023-04-03T16:10:45;14.90;69.70
18083;DHT22;9168;51.194;6.840;2023-04-03T16:13:13;14.70;70.40
18083;DHT22;9168;51.194;6.840;2023-04-03T16:15:40;14.30;72.60
18083;DHT22;9168;51.194;6.840;2023-04-03T16:18:08;14.10;73.20
18083;DHT22;9168;51.194;6.840;2023-04-03T16:20:36;14.00;73.00